METAR Formatted Surface Weather Observation
Issued by NWS

Home | Current Version | Previous Version | Text Only | Print | Product List | Glossary On
Versions: 1 2 3 4 5 6 7 8 9 10 11 12 13 14
000
SAUS45 KLKN 170958
MTRWMC
METAR KWMC 170956Z AUTO 05009KT 10SM CLR 08/M04 A2998 RMK AO2 SLP128
T00831039 TSNO



USA.gov is the U.S. government's official web portal to all federal, state and local government web resources and services.